sensor_id;sensor_type;location;lat;lon;timestamp;P1;durP1;ratioP1;P2;durP2;ratioP2
5060;SDS011;2549;52.128;21.068;2022-07-06T00:01:48;6.77;;;6.10;;
5060;SDS011;2549;52.128;21.068;2022-07-06T00:04:17;5.90;;;5.13;;
5060;SDS011;2549;52.128;21.068;2022-07-06T00:06:45;7.00;;;5.37;;
5060;SDS011;2549;52.128;21.068;2022-07-06T00:09:12;5.00;;;4.60;;
5060;SDS011;2549;52.128;21.068;2022-07-06T00:11:39;5.97;;;5.37;;
5060;SDS011;2549;52.128;21.068;2022-07-06T00:14:06;6.27;;;5.10;;
5060;SDS011;2549;52.128;21.068;2022-07-06T00:16:33;5.13;;;4.63;;
5060;SDS011;2549;52.128;21.068;2022-07-06T00:19:00;5.80;;;5.20;;
5060;SDS011;2549;52.128;21.068;2022-07-06T00:21:27;5.00;;;4.50;;
5060;SDS011;2549;52.128;21.068;2022-07-06T00:23:54;5.30;;;4.20;;
5060;SDS011;2549;52.128;21.068;2022-07-06T00:26:21;6.27;;;4.80;;
5060;SDS011;2549;52.128;21.068;2022-07-06T00:28:48;4.10;;;3.80;;
5060;SDS011;2549;52.128;21.068;2022-07-06T00:31:15;4.83;;;4.43;;
5060;SDS011;2549;52.128;21.068;2022-07-06T00:33:42;5.40;;;4.90;;
5060;SDS011;2549;52.128;21.068;2022-07-06T00:36:09;4.77;;;4.37;;
5060;SDS011;2549;52.128;21.068;2022-07-06T00:38:36;8.33;;;4.63;;
5060;SDS011;2549;52.128;21.068;2022-07-06T00:41:03;6.37;;;4.27;;
5060;SDS011;2549;52.128;21.068;2022-07-06T00:43:46;4.97;;;4.47;;
5060;SDS011;2549;52.128;21.068;2022-07-06T00:46:18;5.53;;;4.37;;
5060;SDS011;2549;52.128;21.068;2022-07-06T00:48:45;5.80;;;4.87;;
5060;SDS011;2549;52.128;21.068;2022-07-06T00:51:12;6.67;;;3.90;;
5060;SDS011;2549;52.128;21.068;2022-07-06T00:53:40;7.83;;;4.60;;
5060;SDS011;2549;52.128;21.068;2022-07-06T00:56:08;9.83;;;4.37;;
5060;SDS011;2549;52.128;21.068;2022-07-06T00:58:36;7.43;;;4.57;;
5060;SDS011;2549;52.128;21.068;2022-07-06T01:01:03;6.40;;;4.63;;
5060;SDS011;2549;52.128;21.068;2022-07-06T01:03:30;4.87;;;4.53;;
5060;SDS011;2549;52.128;21.068;2022-07-06T01:05:56;3.93;;;3.63;;
5060;SDS011;2549;52.128;21.068;2022-07-06T01:08:24;5.07;;;4.67;;
5060;SDS011;2549;52.128;21.068;2022-07-06T01:10:51;4.77;;;3.60;;
5060;SDS011;2549;52.128;21.068;2022-07-06T01:13:18;3.90;;;3.60;;
5060;SDS011;2549;52.128;21.068;2022-07-06T01:15:45;5.20;;;4.00;;
5060;SDS011;2549;52.128;21.068;2022-07-06T01:18:12;5.23;;;3.83;;
5060;SDS011;2549;52.128;21.068;2022-07-06T01:20:40;4.87;;;3.57;;
5060;SDS011;2549;52.128;21.068;2022-07-06T01:23:07;4.90;;;3.73;;
5060;SDS011;2549;52.128;21.068;2022-07-06T01:25:33;3.93;;;3.60;;
5060;SDS011;2549;52.128;21.068;2022-07-06T01:28:00;3.90;;;3.60;;
5060;SDS011;2549;52.128;21.068;2022-07-06T01:30:27;3.60;;;3.30;;
5060;SDS011;2549;52.128;21.068;2022-07-06T01:32:54;4.30;;;3.30;;
5060;SDS011;2549;52.128;21.068;2022-07-06T01:35:21;10.93;;;3.20;;
5060;SDS011;2549;52.128;21.068;2022-07-06T01:37:50;4.47;;;3.70;;
5060;SDS011;2549;52.128;21.068;2022-07-06T01:40:17;9.27;;;3.60;;
5060;SDS011;2549;52.128;21.068;2022-07-06T01:42:44;4.40;;;4.07;;
5060;SDS011;2549;52.128;21.068;2022-07-06T01:45:11;3.70;;;3.50;;
5060;SDS011;2549;52.128;21.068;2022-07-06T01:47:38;9.87;;;4.13;;
5060;SDS011;2549;52.128;21.068;2022-07-06T01:50:05;9.20;;;3.83;;
5060;SDS011;2549;52.128;21.068;2022-07-06T01:52:34;4.10;;;3.70;;
5060;SDS011;2549;52.128;21.068;2022-07-06T01:55:01;8.30;;;3.67;;
5060;SDS011;2549;52.128;21.068;2022-07-06T01:57:28;3.57;;;3.37;;
5060;SDS011;2549;52.128;21.068;2022-07-06T01:59:55;4.30;;;3.73;;
5060;SDS011;2549;52.128;21.068;2022-07-06T02:02:22;8.57;;;4.30;;
5060;SDS011;2549;52.128;21.068;2022-07-06T02:04:49;5.10;;;3.80;;
5060;SDS011;2549;52.128;21.068;2022-07-06T02:07:16;5.03;;;3.70;;
5060;SDS011;2549;52.128;21.068;2022-07-06T02:09:43;4.80;;;4.40;;
5060;SDS011;2549;52.128;21.068;2022-07-06T02:12:10;4.13;;;3.73;;
5060;SDS011;2549;52.128;21.068;2022-07-06T02:14:36;5.23;;;3.80;;
5060;SDS011;2549;52.128;21.068;2022-07-06T02:17:03;4.77;;;3.53;;
5060;SDS011;2549;52.128;21.068;2022-07-06T02:19:30;3.50;;;3.30;;
5060;SDS011;2549;52.128;21.068;2022-07-06T02:21:57;3.97;;;3.67;;
5060;SDS011;2549;52.128;21.068;2022-07-06T02:24:24;3.07;;;2.87;;
5060;SDS011;2549;52.128;21.068;2022-07-06T02:26:51;3.57;;;3.37;;
5060;SDS011;2549;52.128;21.068;2022-07-06T02:29:18;3.40;;;3.10;;
5060;SDS011;2549;52.128;21.068;2022-07-06T02:31:46;3.67;;;3.40;;
5060;SDS011;2549;52.128;21.068;2022-07-06T02:34:13;4.97;;;3.50;;
5060;SDS011;2549;52.128;21.068;2022-07-06T02:36:39;2.90;;;2.80;;
5060;SDS011;2549;52.128;21.068;2022-07-06T02:39:06;4.63;;;3.37;;
5060;SDS011;2549;52.128;21.068;2022-07-06T02:41:33;3.97;;;3.60;;
5060;SDS011;2549;52.128;21.068;2022-07-06T02:44:00;3.80;;;3.50;;
5060;SDS011;2549;52.128;21.068;2022-07-06T02:46:27;3.70;;;3.30;;
5060;SDS011;2549;52.128;21.068;2022-07-06T02:48:54;8.43;;;3.23;;
5060;SDS011;2549;52.128;21.068;2022-07-06T02:51:21;4.10;;;3.70;;
5060;SDS011;2549;52.128;21.068;2022-07-06T02:53:49;4.50;;;3.30;;
5060;SDS011;2549;52.128;21.068;2022-07-06T02:56:16;3.87;;;3.57;;
5060;SDS011;2549;52.128;21.068;2022-07-06T02:58:43;3.20;;;3.00;;
5060;SDS011;2549;52.128;21.068;2022-07-06T03:01:10;10.17;;;3.43;;
5060;SDS011;2549;52.128;21.068;2022-07-06T03:03:37;3.03;;;2.93;;
5060;SDS011;2549;52.128;21.068;2022-07-06T03:06:04;3.50;;;3.30;;
5060;SDS011;2549;52.128;21.068;2022-07-06T03:08:31;3.30;;;3.00;;
5060;SDS011;2549;52.128;21.068;2022-07-06T03:11:00;2.90;;;2.70;;
5060;SDS011;2549;52.128;21.068;2022-07-06T03:13:27;3.20;;;3.00;;
5060;SDS011;2549;52.128;21.068;2022-07-06T03:15:54;5.60;;;2.83;;
5060;SDS011;2549;52.128;21.068;2022-07-06T03:18:21;3.40;;;2.63;;
5060;SDS011;2549;52.128;21.068;2022-07-06T03:20:49;3.80;;;2.70;;
5060;SDS011;2549;52.128;21.068;2022-07-06T03:23:16;2.70;;;2.50;;
5060;SDS011;2549;52.128;21.068;2022-07-06T03:25:43;2.77;;;2.57;;
5060;SDS011;2549;52.128;21.068;2022-07-06T03:28:10;3.33;;;3.10;;
5060;SDS011;2549;52.128;21.068;2022-07-06T03:30:37;2.90;;;2.33;;
5060;SDS011;2549;52.128;21.068;2022-07-06T03:33:04;7.60;;;3.07;;
5060;SDS011;2549;52.128;21.068;2022-07-06T03:35:31;4.20;;;3.03;;
5060;SDS011;2549;52.128;21.068;2022-07-06T03:37:58;2.47;;;2.27;;
5060;SDS011;2549;52.128;21.068;2022-07-06T03:40:25;2.80;;;2.60;;
5060;SDS011;2549;52.128;21.068;2022-07-06T03:42:51;3.70;;;2.60;;
5060;SDS011;2549;52.128;21.068;2022-07-06T03:45:18;2.90;;;2.70;;
5060;SDS011;2549;52.128;21.068;2022-07-06T03:47:45;2.50;;;2.40;;
5060;SDS011;2549;52.128;21.068;2022-07-06T03:50:12;3.00;;;2.77;;
5060;SDS011;2549;52.128;21.068;2022-07-06T03:52:39;2.67;;;2.57;;
5060;SDS011;2549;52.128;21.068;2022-07-06T03:55:07;2.80;;;2.40;;
5060;SDS011;2549;52.128;21.068;2022-07-06T03:57:38;4.50;;;2.50;;
5060;SDS011;2549;52.128;21.068;2022-07-06T04:00:07;2.27;;;2.07;;
5060;SDS011;2549;52.128;21.068;2022-07-06T04:02:35;4.37;;;3.00;;
5060;SDS011;2549;52.128;21.068;2022-07-06T04:05:02;2.93;;;2.73;;
5060;SDS011;2549;52.128;21.068;2022-07-06T04:07:29;2.17;;;2.07;;
5060;SDS011;2549;52.128;21.068;2022-07-06T04:09:56;2.50;;;2.30;;
5060;SDS011;2549;52.128;21.068;2022-07-06T04:12:23;4.03;;;2.67;;
5060;SDS011;2549;52.128;21.068;2022-07-06T04:14:51;3.40;;;2.70;;
5060;SDS011;2549;52.128;21.068;2022-07-06T04:17:18;2.50;;;2.27;;
5060;SDS011;2549;52.128;21.068;2022-07-06T04:20:04;2.60;;;2.10;;
5060;SDS011;2549;52.128;21.068;2022-07-06T04:22:31;4.30;;;2.30;;
5060;SDS011;2549;52.128;21.068;2022-07-06T04:24:58;3.77;;;3.47;;
5060;SDS011;2549;52.128;21.068;2022-07-06T04:27:25;4.70;;;2.53;;
5060;SDS011;2549;52.128;21.068;2022-07-06T04:29:52;2.40;;;2.20;;
5060;SDS011;2549;52.128;21.068;2022-07-06T04:32:19;2.50;;;2.40;;
5060;SDS011;2549;52.128;21.068;2022-07-06T04:34:52;2.20;;;2.10;;
5060;SDS011;2549;52.128;21.068;2022-07-06T04:37:19;4.70;;;2.63;;
5060;SDS011;2549;52.128;21.068;2022-07-06T04:39:46;3.77;;;2.80;;
5060;SDS011;2549;52.128;21.068;2022-07-06T04:42:12;2.73;;;2.60;;
5060;SDS011;2549;52.128;21.068;2022-07-06T04:44:39;2.60;;;2.30;;
5060;SDS011;2549;52.128;21.068;2022-07-06T04:47:06;2.33;;;2.13;;
5060;SDS011;2549;52.128;21.068;2022-07-06T04:49:33;2.20;;;2.07;;
5060;SDS011;2549;52.128;21.068;2022-07-06T04:52:00;2.60;;;2.50;;
5060;SDS011;2549;52.128;21.068;2022-07-06T04:54:27;2.03;;;1.90;;
5060;SDS011;2549;52.128;21.068;2022-07-06T04:56:54;2.13;;;2.03;;
5060;SDS011;2549;52.128;21.068;2022-07-06T04:59:21;2.20;;;1.93;;
5060;SDS011;2549;52.128;21.068;2022-07-06T05:01:48;6.37;;;2.30;;
5060;SDS011;2549;52.128;21.068;2022-07-06T05:04:15;3.37;;;2.03;;
5060;SDS011;2549;52.128;21.068;2022-07-06T05:06:44;2.53;;;2.20;;
5060;SDS011;2549;52.128;21.068;2022-07-06T05:09:12;2.23;;;1.67;;
5060;SDS011;2549;52.128;21.068;2022-07-06T05:11:39;3.80;;;2.20;;
5060;SDS011;2549;52.128;21.068;2022-07-06T05:14:06;2.10;;;1.80;;
5060;SDS011;2549;52.128;21.068;2022-07-06T05:16:33;6.93;;;2.67;;
5060;SDS011;2549;52.128;21.068;2022-07-06T05:19:00;2.13;;;2.03;;
5060;SDS011;2549;52.128;21.068;2022-07-06T05:21:27;2.10;;;2.00;;
5060;SDS011;2549;52.128;21.068;2022-07-06T05:23:53;3.73;;;2.27;;
5060;SDS011;2549;52.128;21.068;2022-07-06T05:26:20;3.13;;;1.97;;
5060;SDS011;2549;52.128;21.068;2022-07-06T05:28:47;2.60;;;1.97;;
5060;SDS011;2549;52.128;21.068;2022-07-06T05:31:14;5.80;;;2.50;;
5060;SDS011;2549;52.128;21.068;2022-07-06T05:33:41;1.67;;;1.57;;
5060;SDS011;2549;52.128;21.068;2022-07-06T05:36:08;5.50;;;2.37;;
5060;SDS011;2549;52.128;21.068;2022-07-06T05:38:35;4.83;;;2.00;;
5060;SDS011;2549;52.128;21.068;2022-07-06T05:41:02;2.20;;;2.10;;
5060;SDS011;2549;52.128;21.068;2022-07-06T05:43:29;2.47;;;2.27;;
5060;SDS011;2549;52.128;21.068;2022-07-06T05:45:56;2.47;;;2.27;;
5060;SDS011;2549;52.128;21.068;2022-07-06T05:48:22;6.17;;;2.40;;
5060;SDS011;2549;52.128;21.068;2022-07-06T05:51:08;5.00;;;2.93;;
5060;SDS011;2549;52.128;21.068;2022-07-06T05:53:34;4.10;;;2.43;;
5060;SDS011;2549;52.128;21.068;2022-07-06T05:56:01;4.00;;;2.77;;
5060;SDS011;2549;52.128;21.068;2022-07-06T05:58:28;3.13;;;2.90;;
5060;SDS011;2549;52.128;21.068;2022-07-06T06:00:55;2.93;;;2.63;;
5060;SDS011;2549;52.128;21.068;2022-07-06T06:03:22;3.80;;;2.73;;
5060;SDS011;2549;52.128;21.068;2022-07-06T06:05:50;3.53;;;2.10;;
5060;SDS011;2549;52.128;21.068;2022-07-06T06:08:17;4.27;;;2.97;;
5060;SDS011;2549;52.128;21.068;2022-07-06T06:10:44;2.90;;;2.40;;
5060;SDS011;2549;52.128;21.068;2022-07-06T06:13:11;2.80;;;2.57;;
5060;SDS011;2549;52.128;21.068;2022-07-06T06:15:38;3.77;;;3.57;;
5060;SDS011;2549;52.128;21.068;2022-07-06T06:18:04;8.57;;;2.57;;
5060;SDS011;2549;52.128;21.068;2022-07-06T06:20:32;3.80;;;2.87;;
5060;SDS011;2549;52.128;21.068;2022-07-06T06:22:59;13.47;;;3.60;;
5060;SDS011;2549;52.128;21.068;2022-07-06T06:25:36;7.13;;;3.00;;
5060;SDS011;2549;52.128;21.068;2022-07-06T06:28:08;2.97;;;2.60;;
5060;SDS011;2549;52.128;21.068;2022-07-06T06:30:36;3.10;;;2.70;;
5060;SDS011;2549;52.128;21.068;2022-07-06T06:33:17;8.33;;;3.07;;
5060;SDS011;2549;52.128;21.068;2022-07-06T06:35:49;2.80;;;2.60;;
5060;SDS011;2549;52.128;21.068;2022-07-06T06:38:21;7.13;;;2.53;;
5060;SDS011;2549;52.128;21.068;2022-07-06T06:40:53;3.17;;;2.97;;
5060;SDS011;2549;52.128;21.068;2022-07-06T06:43:20;3.20;;;3.03;;
5060;SDS011;2549;52.128;21.068;2022-07-06T06:45:47;5.10;;;2.80;;
5060;SDS011;2549;52.128;21.068;2022-07-06T06:48:14;6.80;;;3.80;;
5060;SDS011;2549;52.128;21.068;2022-07-06T06:50:43;3.30;;;3.10;;
5060;SDS011;2549;52.128;21.068;2022-07-06T06:53:13;6.43;;;2.87;;
5060;SDS011;2549;52.128;21.068;2022-07-06T06:55:39;3.20;;;2.93;;
5060;SDS011;2549;52.128;21.068;2022-07-06T06:58:06;11.60;;;3.50;;
5060;SDS011;2549;52.128;21.068;2022-07-06T07:00:33;4.07;;;3.60;;
5060;SDS011;2549;52.128;21.068;2022-07-06T07:03:00;8.50;;;3.60;;
5060;SDS011;2549;52.128;21.068;2022-07-06T07:05:27;6.00;;;4.30;;
5060;SDS011;2549;52.128;21.068;2022-07-06T07:07:54;8.07;;;4.43;;
5060;SDS011;2549;52.128;21.068;2022-07-06T07:10:30;5.83;;;4.20;;
5060;SDS011;2549;52.128;21.068;2022-07-06T07:12:58;6.70;;;3.93;;
5060;SDS011;2549;52.128;21.068;2022-07-06T07:15:25;7.80;;;4.23;;
5060;SDS011;2549;52.128;21.068;2022-07-06T07:17:52;4.63;;;3.80;;
5060;SDS011;2549;52.128;21.068;2022-07-06T07:20:19;6.53;;;4.60;;
5060;SDS011;2549;52.128;21.068;2022-07-06T07:22:46;12.80;;;5.00;;
5060;SDS011;2549;52.128;21.068;2022-07-06T07:25:13;4.60;;;3.90;;
5060;SDS011;2549;52.128;21.068;2022-07-06T07:27:40;5.10;;;4.57;;
5060;SDS011;2549;52.128;21.068;2022-07-06T07:30:07;6.17;;;4.97;;
5060;SDS011;2549;52.128;21.068;2022-07-06T07:32:34;6.80;;;4.77;;
5060;SDS011;2549;52.128;21.068;2022-07-06T07:35:01;9.77;;;5.20;;
5060;SDS011;2549;52.128;21.068;2022-07-06T07:37:29;7.60;;;4.00;;
5060;SDS011;2549;52.128;21.068;2022-07-06T07:39:56;8.50;;;4.60;;
5060;SDS011;2549;52.128;21.068;2022-07-06T07:42:23;4.80;;;4.13;;
5060;SDS011;2549;52.128;21.068;2022-07-06T07:44:50;7.53;;;4.53;;
5060;SDS011;2549;52.128;21.068;2022-07-06T07:47:17;5.60;;;5.00;;
5060;SDS011;2549;52.128;21.068;2022-07-06T07:49:45;5.37;;;4.87;;
5060;SDS011;2549;52.128;21.068;2022-07-06T07:52:12;9.30;;;5.30;;
5060;SDS011;2549;52.128;21.068;2022-07-06T07:54:39;6.80;;;4.03;;
5060;SDS011;2549;52.128;21.068;2022-07-06T07:57:13;4.63;;;4.23;;
5060;SDS011;2549;52.128;21.068;2022-07-06T07:59:39;6.63;;;4.10;;
5060;SDS011;2549;52.128;21.068;2022-07-06T08:02:08;5.33;;;3.50;;
5060;SDS011;2549;52.128;21.068;2022-07-06T08:04:35;9.83;;;5.00;;
5060;SDS011;2549;52.128;21.068;2022-07-06T08:07:02;6.17;;;3.77;;
5060;SDS011;2549;52.128;21.068;2022-07-06T08:09:29;10.63;;;4.53;;
5060;SDS011;2549;52.128;21.068;2022-07-06T08:11:56;8.77;;;3.27;;
5060;SDS011;2549;52.128;21.068;2022-07-06T08:14:24;5.23;;;3.83;;
5060;SDS011;2549;52.128;21.068;2022-07-06T08:16:51;6.50;;;3.90;;
5060;SDS011;2549;52.128;21.068;2022-07-06T08:19:18;12.77;;;5.07;;
5060;SDS011;2549;52.128;21.068;2022-07-06T08:21:45;13.63;;;4.10;;
5060;SDS011;2549;52.128;21.068;2022-07-06T08:24:12;4.50;;;3.57;;
5060;SDS011;2549;52.128;21.068;2022-07-06T08:26:39;5.20;;;3.33;;
5060;SDS011;2549;52.128;21.068;2022-07-06T08:29:06;8.67;;;4.50;;
5060;SDS011;2549;52.128;21.068;2022-07-06T08:31:33;5.10;;;2.17;;
5060;SDS011;2549;52.128;21.068;2022-07-06T08:34:21;13.53;;;2.90;;
5060;SDS011;2549;52.128;21.068;2022-07-06T08:36:48;3.83;;;2.30;;
5060;SDS011;2549;52.128;21.068;2022-07-06T08:39:15;5.23;;;2.50;;
5060;SDS011;2549;52.128;21.068;2022-07-06T08:41:43;4.07;;;2.10;;
5060;SDS011;2549;52.128;21.068;2022-07-06T08:44:15;2.53;;;2.10;;
5060;SDS011;2549;52.128;21.068;2022-07-06T08:46:43;3.33;;;2.00;;
5060;SDS011;2549;52.128;21.068;2022-07-06T08:49:16;2.80;;;1.97;;
5060;SDS011;2549;52.128;21.068;2022-07-06T08:51:43;3.13;;;2.10;;
5060;SDS011;2549;52.128;21.068;2022-07-06T08:54:11;4.47;;;2.17;;
5060;SDS011;2549;52.128;21.068;2022-07-06T08:56:40;7.97;;;2.83;;
5060;SDS011;2549;52.128;21.068;2022-07-06T08:59:14;4.63;;;2.07;;
5060;SDS011;2549;52.128;21.068;2022-07-06T09:01:42;2.30;;;2.00;;
5060;SDS011;2549;52.128;21.068;2022-07-06T09:04:11;2.03;;;1.10;;
5060;SDS011;2549;52.128;21.068;2022-07-06T09:06:39;1.73;;;1.33;;
5060;SDS011;2549;52.128;21.068;2022-07-06T09:09:09;9.20;;;1.20;;
5060;SDS011;2549;52.128;21.068;2022-07-06T09:11:36;3.50;;;1.63;;
5060;SDS011;2549;52.128;21.068;2022-07-06T09:14:04;2.07;;;1.20;;
5060;SDS011;2549;52.128;21.068;2022-07-06T09:16:31;2.00;;;1.03;;
5060;SDS011;2549;52.128;21.068;2022-07-06T09:19:05;3.77;;;1.20;;
5060;SDS011;2549;52.128;21.068;2022-07-06T09:21:33;1.13;;;1.03;;
5060;SDS011;2549;52.128;21.068;2022-07-06T09:24:08;2.63;;;1.20;;
5060;SDS011;2549;52.128;21.068;2022-07-06T09:26:37;2.20;;;1.53;;
5060;SDS011;2549;52.128;21.068;2022-07-06T09:29:05;2.10;;;1.10;;
5060;SDS011;2549;52.128;21.068;2022-07-06T09:31:32;3.70;;;1.40;;
5060;SDS011;2549;52.128;21.068;2022-07-06T09:34:04;1.83;;;1.20;;
5060;SDS011;2549;52.128;21.068;2022-07-06T09:36:39;11.33;;;1.50;;
5060;SDS011;2549;52.128;21.068;2022-07-06T09:39:41;4.00;;;1.20;;
5060;SDS011;2549;52.128;21.068;2022-07-06T09:42:02;1.03;;;0.83;;
5060;SDS011;2549;52.128;21.068;2022-07-06T09:44:31;4.90;;;1.57;;
5060;SDS011;2549;52.128;21.068;2022-07-06T09:47:00;5.13;;;1.20;;
5060;SDS011;2549;52.128;21.068;2022-07-06T09:49:28;8.80;;;1.13;;
5060;SDS011;2549;52.128;21.068;2022-07-06T09:51:56;4.93;;;1.10;;
5060;SDS011;2549;52.128;21.068;2022-07-06T09:54:25;1.10;;;1.00;;
5060;SDS011;2549;52.128;21.068;2022-07-06T09:56:52;2.80;;;1.10;;
5060;SDS011;2549;52.128;21.068;2022-07-06T09:59:21;2.10;;;1.30;;
5060;SDS011;2549;52.128;21.068;2022-07-06T10:01:51;3.83;;;1.47;;
5060;SDS011;2549;52.128;21.068;2022-07-06T10:04:21;5.17;;;1.20;;
5060;SDS011;2549;52.128;21.068;2022-07-06T10:06:48;1.00;;;0.90;;
5060;SDS011;2549;52.128;21.068;2022-07-06T10:09:16;3.10;;;1.37;;
5060;SDS011;2549;52.128;21.068;2022-07-06T10:12:03;3.90;;;0.90;;
5060;SDS011;2549;52.128;21.068;2022-07-06T10:14:36;2.80;;;0.80;;
5060;SDS011;2549;52.128;21.068;2022-07-06T10:17:06;0.80;;;0.80;;
5060;SDS011;2549;52.128;21.068;2022-07-06T10:19:33;5.67;;;1.07;;
5060;SDS011;2549;52.128;21.068;2022-07-06T10:22:01;3.37;;;1.30;;
5060;SDS011;2549;52.128;21.068;2022-07-06T10:24:29;1.70;;;0.97;;
5060;SDS011;2549;52.128;21.068;2022-07-06T10:27:00;1.10;;;1.00;;
5060;SDS011;2549;52.128;21.068;2022-07-06T10:29:28;1.00;;;1.00;;
5060;SDS011;2549;52.128;21.068;2022-07-06T10:31:58;1.10;;;0.93;;
5060;SDS011;2549;52.128;21.068;2022-07-06T10:34:26;3.20;;;0.90;;
5060;SDS011;2549;52.128;21.068;2022-07-06T10:36:54;1.87;;;0.77;;
5060;SDS011;2549;52.128;21.068;2022-07-06T10:39:34;2.10;;;1.33;;
5060;SDS011;2549;52.128;21.068;2022-07-06T10:45:10;2.10;;;1.20;;
5060;SDS011;2549;52.128;21.068;2022-07-06T10:47:39;2.50;;;0.80;;
5060;SDS011;2549;52.128;21.068;2022-07-06T10:50:07;0.80;;;0.80;;
5060;SDS011;2549;52.128;21.068;2022-07-06T10:52:52;2.17;;;1.20;;
5060;SDS011;2549;52.128;21.068;2022-07-06T10:55:31;3.27;;;0.70;;
5060;SDS011;2549;52.128;21.068;2022-07-06T10:57:59;2.30;;;0.90;;
5060;SDS011;2549;52.128;21.068;2022-07-06T11:00:42;2.73;;;1.13;;
5060;SDS011;2549;52.128;21.068;2022-07-06T11:06:03;3.63;;;0.90;;
5060;SDS011;2549;52.128;21.068;2022-07-06T11:08:48;7.10;;;0.77;;
5060;SDS011;2549;52.128;21.068;2022-07-06T11:11:26;0.70;;;0.70;;
5060;SDS011;2549;52.128;21.068;2022-07-06T11:14:11;3.17;;;0.90;;
5060;SDS011;2549;52.128;21.068;2022-07-06T11:21:51;1.50;;;0.70;;
5060;SDS011;2549;52.128;21.068;2022-07-06T11:24:23;1.97;;;0.90;;
5060;SDS011;2549;52.128;21.068;2022-07-06T11:26:54;12.23;;;1.33;;
5060;SDS011;2549;52.128;21.068;2022-07-06T11:29:23;2.53;;;0.90;;
5060;SDS011;2549;52.128;21.068;2022-07-06T11:31:53;12.13;;;0.93;;
5060;SDS011;2549;52.128;21.068;2022-07-06T11:34:23;0.60;;;0.60;;
5060;SDS011;2549;52.128;21.068;2022-07-06T11:36:55;2.13;;;1.00;;
5060;SDS011;2549;52.128;21.068;2022-07-06T11:39:30;0.90;;;0.90;;
5060;SDS011;2549;52.128;21.068;2022-07-06T11:41:59;3.23;;;0.80;;
5060;SDS011;2549;52.128;21.068;2022-07-06T11:44:30;3.53;;;0.80;;
5060;SDS011;2549;52.128;21.068;2022-07-06T11:46:58;1.10;;;1.00;;
5060;SDS011;2549;52.128;21.068;2022-07-06T11:49:28;1.70;;;0.70;;
5060;SDS011;2549;52.128;21.068;2022-07-06T11:51:56;0.67;;;0.60;;
5060;SDS011;2549;52.128;21.068;2022-07-06T11:54:24;1.07;;;0.80;;
5060;SDS011;2549;52.128;21.068;2022-07-06T11:59:28;0.70;;;0.70;;
5060;SDS011;2549;52.128;21.068;2022-07-06T12:02:09;0.80;;;0.77;;
5060;SDS011;2549;52.128;21.068;2022-07-06T12:04:38;2.97;;;1.17;;
5060;SDS011;2549;52.128;21.068;2022-07-06T12:07:08;0.77;;;0.70;;
5060;SDS011;2549;52.128;21.068;2022-07-06T12:09:38;1.80;;;0.60;;
5060;SDS011;2549;52.128;21.068;2022-07-06T12:12:07;1.60;;;0.80;;
5060;SDS011;2549;52.128;21.068;2022-07-06T12:14:36;1.40;;;0.93;;
5060;SDS011;2549;52.128;21.068;2022-07-06T12:17:05;2.50;;;1.10;;
5060;SDS011;2549;52.128;21.068;2022-07-06T12:19:34;2.53;;;0.63;;
5060;SDS011;2549;52.128;21.068;2022-07-06T12:22:02;2.30;;;0.67;;
5060;SDS011;2549;52.128;21.068;2022-07-06T12:24:30;7.70;;;1.00;;
5060;SDS011;2549;52.128;21.068;2022-07-06T12:27:09;1.10;;;1.00;;
5060;SDS011;2549;52.128;21.068;2022-07-06T12:29:37;2.83;;;0.93;;
5060;SDS011;2549;52.128;21.068;2022-07-06T12:32:04;1.63;;;1.47;;
5060;SDS011;2549;52.128;21.068;2022-07-06T12:34:32;1.17;;;0.77;;
5060;SDS011;2549;52.128;21.068;2022-07-06T12:37:06;1.80;;;0.60;;
5060;SDS011;2549;52.128;21.068;2022-07-06T12:39:45;1.07;;;1.07;;
5060;SDS011;2549;52.128;21.068;2022-07-06T12:42:14;2.20;;;1.00;;
5060;SDS011;2549;52.128;21.068;2022-07-06T12:44:52;0.83;;;0.83;;
5060;SDS011;2549;52.128;21.068;2022-07-06T12:47:20;1.63;;;0.90;;
5060;SDS011;2549;52.128;21.068;2022-07-06T12:50:09;1.83;;;1.00;;
5060;SDS011;2549;52.128;21.068;2022-07-06T12:52:37;2.33;;;0.80;;
5060;SDS011;2549;52.128;21.068;2022-07-06T12:55:05;3.43;;;1.20;;
5060;SDS011;2549;52.128;21.068;2022-07-06T12:57:47;1.10;;;0.70;;
5060;SDS011;2549;52.128;21.068;2022-07-06T13:00:15;1.80;;;0.93;;
5060;SDS011;2549;52.128;21.068;2022-07-06T13:02:44;0.63;;;0.63;;
5060;SDS011;2549;52.128;21.068;2022-07-06T13:05:32;1.10;;;0.83;;
5060;SDS011;2549;52.128;21.068;2022-07-06T13:08:01;1.80;;;0.70;;
5060;SDS011;2549;52.128;21.068;2022-07-06T13:10:28;5.50;;;0.70;;
5060;SDS011;2549;52.128;21.068;2022-07-06T13:12:57;3.47;;;0.80;;
5060;SDS011;2549;52.128;21.068;2022-07-06T13:15:24;0.70;;;0.70;;
5060;SDS011;2549;52.128;21.068;2022-07-06T13:17:51;2.40;;;1.47;;
5060;SDS011;2549;52.128;21.068;2022-07-06T13:20:18;1.00;;;0.93;;
5060;SDS011;2549;52.128;21.068;2022-07-06T13:22:45;0.80;;;0.80;;
5060;SDS011;2549;52.128;21.068;2022-07-06T13:25:12;3.00;;;1.20;;
5060;SDS011;2549;52.128;21.068;2022-07-06T13:27:40;3.23;;;1.10;;
5060;SDS011;2549;52.128;21.068;2022-07-06T13:30:07;6.10;;;1.07;;
5060;SDS011;2549;52.128;21.068;2022-07-06T13:32:34;2.50;;;0.70;;
5060;SDS011;2549;52.128;21.068;2022-07-06T13:35:01;1.07;;;0.93;;
5060;SDS011;2549;52.128;21.068;2022-07-06T13:37:28;1.43;;;0.70;;
5060;SDS011;2549;52.128;21.068;2022-07-06T13:39:55;2.40;;;0.70;;
5060;SDS011;2549;52.128;21.068;2022-07-06T13:42:22;3.40;;;0.70;;
5060;SDS011;2549;52.128;21.068;2022-07-06T13:44:49;1.73;;;0.63;;
5060;SDS011;2549;52.128;21.068;2022-07-06T13:47:16;2.40;;;0.70;;
5060;SDS011;2549;52.128;21.068;2022-07-06T13:49:43;0.80;;;0.70;;
5060;SDS011;2549;52.128;21.068;2022-07-06T13:52:14;0.80;;;0.80;;
5060;SDS011;2549;52.128;21.068;2022-07-06T13:54:41;12.03;;;1.13;;
5060;SDS011;2549;52.128;21.068;2022-07-06T13:57:08;2.10;;;0.93;;
5060;SDS011;2549;52.128;21.068;2022-07-06T13:59:35;3.73;;;0.93;;
5060;SDS011;2549;52.128;21.068;2022-07-06T14:02:02;1.40;;;1.00;;
5060;SDS011;2549;52.128;21.068;2022-07-06T14:04:29;0.70;;;0.70;;
5060;SDS011;2549;52.128;21.068;2022-07-06T14:06:56;2.10;;;1.00;;
5060;SDS011;2549;52.128;21.068;2022-07-06T14:09:23;0.83;;;0.83;;
5060;SDS011;2549;52.128;21.068;2022-07-06T14:11:50;1.50;;;1.20;;
5060;SDS011;2549;52.128;21.068;2022-07-06T14:14:16;5.73;;;0.97;;
5060;SDS011;2549;52.128;21.068;2022-07-06T14:16:43;1.13;;;1.00;;
5060;SDS011;2549;52.128;21.068;2022-07-06T14:19:10;1.13;;;0.93;;
5060;SDS011;2549;52.128;21.068;2022-07-06T14:21:45;6.20;;;0.80;;
5060;SDS011;2549;52.128;21.068;2022-07-06T14:24:13;0.60;;;0.60;;
5060;SDS011;2549;52.128;21.068;2022-07-06T14:26:40;2.23;;;0.80;;
5060;SDS011;2549;52.128;21.068;2022-07-06T14:29:07;0.97;;;0.90;;
5060;SDS011;2549;52.128;21.068;2022-07-06T14:31:34;0.80;;;0.80;;
5060;SDS011;2549;52.128;21.068;2022-07-06T14:34:01;1.73;;;1.20;;
5060;SDS011;2549;52.128;21.068;2022-07-06T14:36:28;2.03;;;1.07;;
5060;SDS011;2549;52.128;21.068;2022-07-06T14:38:55;10.60;;;0.80;;
5060;SDS011;2549;52.128;21.068;2022-07-06T14:41:22;2.17;;;1.00;;
5060;SDS011;2549;52.128;21.068;2022-07-06T14:43:49;0.77;;;0.77;;
5060;SDS011;2549;52.128;21.068;2022-07-06T14:46:15;5.37;;;1.00;;
5060;SDS011;2549;52.128;21.068;2022-07-06T14:48:42;2.93;;;0.90;;
5060;SDS011;2549;52.128;21.068;2022-07-06T14:51:09;6.13;;;0.90;;
5060;SDS011;2549;52.128;21.068;2022-07-06T14:53:36;3.13;;;0.90;;
5060;SDS011;2549;52.128;21.068;2022-07-06T14:56:03;0.97;;;0.90;;
5060;SDS011;2549;52.128;21.068;2022-07-06T14:58:30;4.90;;;1.03;;
5060;SDS011;2549;52.128;21.068;2022-07-06T15:00:57;2.70;;;1.17;;
5060;SDS011;2549;52.128;21.068;2022-07-06T15:03:25;2.40;;;1.10;;
5060;SDS011;2549;52.128;21.068;2022-07-06T15:05:53;1.57;;;1.20;;
5060;SDS011;2549;52.128;21.068;2022-07-06T15:08:20;1.20;;;1.10;;
5060;SDS011;2549;52.128;21.068;2022-07-06T15:10:47;0.90;;;0.90;;
5060;SDS011;2549;52.128;21.068;2022-07-06T15:13:15;7.07;;;1.40;;
5060;SDS011;2549;52.128;21.068;2022-07-06T15:15:42;6.20;;;0.87;;
5060;SDS011;2549;52.128;21.068;2022-07-06T15:18:22;4.77;;;0.90;;
5060;SDS011;2549;52.128;21.068;2022-07-06T15:20:50;0.73;;;0.73;;
5060;SDS011;2549;52.128;21.068;2022-07-06T15:23:18;1.63;;;0.70;;